Terminal Aerodrome Forecast
Issued by NWS

Home | Current Version | Previous Version | Text Only | Print | Product List | Glossary On
Versions: 1 2 3 4 5 6 7 8 9 10 11 12 13 14 15 16 17 18 19 20 21
182
FTUS46 KMFR 220128 AAA
TAFLMT
TAF AMD
KLMT 220128Z 2201/2224 26015KT P6SM SCT025 BKN050
     FM220400 VRB03KT P6SM SCT025 BKN050
     FM220600 VRB03KT 5SM -SHSN SCT020 OVC040
     FM221400 VRB03KT 4SM -SN BKN020=

USA.gov is the U.S. government's official web portal to all federal, state and local government web resources and services.